Time;durP1;ratioP1;P1;durP2;ratioP2;P2;SDS_P1;SDS_P2;PMS_P1;PMS_P2;Temp;Humidity;BMP_temperature;BMP_pressure;BME280_temperature;BME280_humidity;BME280_pressure;Samples;Min_cycle;Max_cycle;Signal;HPM_P1;HPM_P2
2023/04/11 00:00:45;;;;;;;;;3.75;3.75;;;;;15.44;54.00;99499.03;5071048;28;45481;-79
2023/04/11 00:03:10;;;;;;;;;5.00;5.00;;;;;15.34;54.26;99494.22;5071436;28;47804;-79
2023/04/11 00:05:36;;;;;;;;;6.00;6.00;;;;;15.28;53.70;99497.22;5070592;27;45645;-79
2023/04/11 00:08:01;;;;;;;;;7.25;7.25;;;;;15.23;53.22;99495.75;5063617;28;45500;-79
2023/04/11 00:10:27;;;;;;;;;7.75;6.75;;;;;15.16;53.55;99495.22;5053455;28;45378;-79
2023/04/11 00:12:56;;;;;;;;;5.25;4.25;;;;;15.12;53.52;99498.09;5055557;28;45609;-79
2023/04/11 00:15:23;;;;;;;;;6.50;5.00;;;;;15.07;53.11;99485.09;5054832;28;45639;-79
2023/04/11 00:17:49;;;;;;;;;7.75;5.50;;;;;15.08;53.06;99485.94;5045644;28;45366;-79
2023/04/11 00:20:15;;;;;;;;;7.50;5.00;;;;;15.07;53.53;99485.09;5055513;28;45496;-79
2023/04/11 00:22:42;;;;;;;;;6.25;5.00;;;;;15.09;52.80;99484.97;5053097;28;46907;-79
2023/04/11 00:25:08;;;;;;;;;6.50;5.00;;;;;15.08;52.97;99480.63;5053193;28;46074;-79
2023/04/11 00:27:33;;;;;;;;;6.00;6.00;;;;;15.09;53.20;99484.97;5051333;28;45523;-79
2023/04/11 00:29:59;;;;;;;;;5.50;5.00;;;;;15.05;52.91;99478.13;5054624;28;45758;-79
2023/04/11 00:32:25;;;;;;;;;5.00;3.25;;;;;14.99;53.42;99466.88;5051785;28;45494;-79
2023/04/11 00:34:50;;;;;;;;;6.00;5.50;;;;;14.96;52.96;99468.84;5067619;28;45449;-79
2023/04/11 00:37:16;;;;;;;;;6.25;6.00;;;;;14.94;53.30;99474.22;5050422;28;45639;-79
2023/04/11 00:39:44;;;;;;;;;8.00;6.00;;;;;14.91;52.81;99461.09;5044330;28;45459;-80
2023/04/11 00:42:10;;;;;;;;;5.50;5.00;;;;;14.89;52.72;99465.66;5044925;28;46190;-79
2023/04/11 00:44:35;;;;;;;;;5.25;4.00;;;;;14.86;53.01;99465.81;5053898;28;45904;-79
2023/04/11 00:47:04;;;;;;;;;4.75;4.75;;;;;14.82;53.19;99466.91;5054534;28;45623;-79
2023/04/11 00:49:30;;;;;;;;;5.00;5.00;;;;;14.80;52.99;99471.44;5055088;28;45386;-79
2023/04/11 00:51:56;;;;;;;;;6.75;4.25;;;;;14.80;52.70;99468.78;5052974;28;45500;-79
2023/04/11 00:54:27;;;;;;;;;5.50;5.00;;;;;14.81;52.70;99462.53;5054464;28;45512;-79
2023/04/11 00:56:53;;;;;;;;;4.75;4.75;;;;;14.87;52.63;99459.56;5061960;28;45439;-79
2023/04/11 00:59:18;;;;;;;;;5.50;5.00;;;;;14.91;52.33;99465.59;5064732;28;45441;-79
2023/04/11 01:01:44;;;;;;;;;5.50;5.50;;;;;14.97;52.23;99457.28;5049653;27;45519;-80
2023/04/11 01:04:09;;;;;;;;;5.25;4.75;;;;;15.00;52.07;99452.69;5062024;28;45415;-80
2023/04/11 01:06:35;;;;;;;;;5.25;5.00;;;;;15.04;51.76;99455.19;5060518;27;45543;-79
2023/04/11 01:09:03;;;;;;;;;6.00;6.00;;;;;15.06;51.67;99461.25;5064575;28;45595;-79
2023/04/11 01:11:29;;;;;;;;;5.25;4.25;;;;;15.09;51.78;99461.06;5058640;28;45682;-79
2023/04/11 01:13:55;;;;;;;;;4.25;4.25;;;;;15.09;51.29;99464.59;5058088;28;45582;-79
2023/04/11 01:16:20;;;;;;;;;6.00;6.00;;;;;15.11;51.66;99467.16;5055658;28;45531;-79
2023/04/11 01:18:48;;;;;;;;;4.50;4.00;;;;;15.06;51.63;99470.09;5055065;28;45755;-79
2023/04/11 01:21:16;;;;;;;;;5.00;5.00;;;;;15.02;51.19;99463.22;5054516;28;46538;-79
2023/04/11 01:23:41;;;;;;;;;4.25;4.25;;;;;14.99;51.72;99461.56;5060228;28;45345;-79
2023/04/11 01:26:07;;;;;;;;;3.75;3.75;;;;;14.94;51.23;99442.38;5054432;28;45357;-79
2023/04/11 01:28:32;;;;;;;;;6.00;6.00;;;;;14.89;51.49;99428.50;5054455;28;45371;-79
2023/04/11 01:30:57;;;;;;;;;4.75;4.75;;;;;14.90;51.58;99440.84;5063102;28;46651;-78
2023/04/11 01:33:23;;;;;;;;;5.75;5.00;;;;;14.89;51.49;99448.88;5047916;28;45387;-80
2023/04/11 01:35:48;;;;;;;;;6.25;6.00;;;;;14.89;51.51;99446.22;5045642;28;45515;-79
2023/04/11 01:38:14;;;;;;;;;6.00;5.00;;;;;14.88;51.82;99444.50;5053320;28;45358;-78
2023/04/11 01:40:40;;;;;;;;;5.75;5.00;;;;;14.86;52.34;99447.25;5052667;28;46579;-79
2023/04/11 01:43:08;;;;;;;;;6.75;4.50;;;;;14.83;51.94;99457.16;5062145;28;45329;-78
2023/04/11 01:45:34;;;;;;;;;8.50;5.50;;;;;14.79;52.04;99464.41;5054293;28;45432;-78
2023/04/11 01:48:05;;;;;;;;;2.00;2.00;;;;;14.76;52.04;99456.59;5042234;28;45574;-79
2023/04/11 01:50:30;;;;;;;;;4.25;4.25;;;;;14.73;52.44;99467.41;5053553;28;46524;-79
2023/04/11 01:52:56;;;;;;;;;5.00;5.00;;;;;14.69;52.85;99467.63;5066150;28;45433;-79
2023/04/11 01:55:21;;;;;;;;;3.25;3.00;;;;;14.65;52.41;99465.13;5052600;28;45445;-79
2023/04/11 01:57:46;;;;;;;;;6.00;5.00;;;;;14.61;52.62;99463.56;5054038;28;45444;-80
2023/04/11 02:00:12;;;;;;;;;5.25;5.25;;;;;14.63;52.58;99471.44;5049013;28;45491;-79
2023/04/11 02:02:38;;;;;;;;;6.75;5.75;;;;;14.61;52.60;99458.25;5051776;28;45532;-78
2023/04/11 02:05:04;;;;;;;;;6.00;6.00;;;;;14.65;52.93;99454.50;5051317;28;45432;-79
2023/04/11 02:07:29;;;;;;;;;6.75;5.00;;;;;14.68;52.45;99447.34;5053784;28;45560;-79
2023/04/11 02:09:56;;;;;;;;;4.50;4.00;;;;;14.71;52.14;99442.72;5052097;28;46903;-78
2023/04/11 02:12:22;;;;;;;;;5.00;5.00;;;;;14.74;52.25;99436.41;5059839;28;45373;-79
2023/04/11 02:14:48;;;;;;;;;5.00;5.00;;;;;14.77;51.93;99439.75;5047605;28;45442;-79
2023/04/11 02:17:14;;;;;;;;;5.00;5.00;;;;;14.78;51.93;99445.91;5057763;28;47657;-78
2023/04/11 02:19:40;;;;;;;;;6.00;6.00;;;;;14.80;52.57;99446.69;5053141;28;46427;-79
2023/04/11 02:22:08;;;;;;;;;5.00;5.00;;;;;14.81;52.75;99445.75;5055538;28;45588;-78
2023/04/11 02:24:34;;;;;;;;;7.50;5.00;;;;;14.81;53.23;99451.91;5073273;27;45467;-79
2023/04/11 02:27:00;;;;;;;;;6.25;4.25;;;;;14.81;53.01;99462.53;5049403;28;45571;-79
2023/04/11 02:29:27;;;;;;;;;8.00;5.00;;;;;14.80;53.03;99458.16;5051208;28;45389;-78
2023/04/11 02:31:52;;;;;;;;;3.00;3.00;;;;;14.79;52.98;99455.59;5061992;28;45419;-79
2023/04/11 02:34:18;;;;;;;;;4.75;4.75;;;;;14.75;53.37;99459.31;5056414;28;45432;-80
2023/04/11 02:36:44;;;;;;;;;5.50;5.50;;;;;14.76;53.35;99463.69;5052925;28;45380;-80
2023/04/11 02:39:10;;;;;;;;;5.00;5.00;;;;;14.76;53.56;99466.34;5053095;28;45447;-78
2023/04/11 02:41:39;;;;;;;;;4.25;4.25;;;;;14.77;53.09;99484.84;5052458;28;45484;-79
2023/04/11 02:44:05;;;;;;;;;2.75;2.75;;;;;14.72;52.59;99468.34;5054845;28;45439;-79
2023/04/11 02:46:30;;;;;;;;;4.00;4.00;;;;;14.65;52.74;99481.03;5048807;28;45683;-79
2023/04/11 02:48:55;;;;;;;;;4.50;4.00;;;;;14.60;52.72;99461.84;5053385;28;46122;-79
2023/04/11 02:51:21;;;;;;;;;7.00;5.75;;;;;14.57;53.63;99464.66;5056754;28;45414;-79
2023/04/11 02:53:46;;;;;;;;;8.00;7.00;;;;;14.56;53.74;99464.75;5051702;28;45244;-79
2023/04/11 02:56:17;;;;;;;;;7.50;6.25;;;;;14.53;54.04;99454.28;5051692;28;45593;-79
2023/04/11 02:58:43;;;;;;;;;6.00;6.00;;;;;14.52;53.08;99455.22;5056302;28;45556;-79
2023/04/11 03:01:10;;;;;;;;;5.00;5.00;;;;;14.47;53.70;99459.88;5055916;28;45535;-79
2023/04/11 03:03:37;;;;;;;;;4.25;4.25;;;;;14.45;54.35;99459.09;5063688;28;45461;-79
2023/04/11 03:06:02;;;;;;;;;7.25;6.00;;;;;14.41;54.68;99449.59;5051497;28;45419;-80
2023/04/11 03:08:28;;;;;;;;;5.00;5.00;;;;;14.40;55.03;99455.81;5058323;28;48362;-80
2023/04/11 03:10:53;;;;;;;;;7.00;7.00;;;;;14.39;56.32;99454.09;5048317;28;45398;-80
2023/04/11 03:13:18;;;;;;;;;8.00;6.75;;;;;14.36;55.81;99455.09;5063366;27;45334;-79
2023/04/11 03:15:44;;;;;;;;;7.00;5.75;;;;;14.32;55.90;99453.53;5055412;28;45561;-79
2023/04/11 03:18:09;;;;;;;;;6.75;6.25;;;;;14.29;55.54;99451.03;5052189;28;45410;-79
2023/04/11 03:20:35;;;;;;;;;5.50;5.25;;;;;14.23;56.24;99462.81;5066620;28;45447;-79
2023/04/11 03:23:00;;;;;;;;;7.00;7.00;;;;;14.19;56.49;99468.34;5058841;28;45418;-79
2023/04/11 03:25:26;;;;;;;;;4.50;4.50;;;;;14.13;56.96;99476.59;5071092;28;45534;-79
2023/04/11 03:27:52;;;;;;;;;6.75;5.50;;;;;13.97;57.69;99469.38;5049575;28;46047;-79
2023/04/11 03:30:17;;;;;;;;;7.00;6.00;;;;;13.82;58.71;99478.06;5061898;28;45412;-80
2023/04/11 03:32:43;;;;;;;;;8.25;6.00;;;;;13.72;59.65;99484.75;5051229;28;45507;-80
2023/04/11 03:35:09;;;;;;;;;7.00;5.75;;;;;13.67;61.16;99486.75;5064558;28;45498;-80
2023/04/11 03:37:35;;;;;;;;;7.00;7.00;;;;;13.55;61.52;99492.63;5059494;28;46217;-80
2023/04/11 03:40:00;;;;;;;;;10.00;8.00;;;;;13.45;63.05;99494.81;5056061;28;45580;-80
2023/04/11 03:42:26;;;;;;;;;8.75;7.75;;;;;13.36;64.25;99500.53;5056436;28;45488;-79
2023/04/11 03:44:51;;;;;;;;;9.00;8.00;;;;;13.24;64.67;99494.00;5071870;28;45518;-79
2023/04/11 03:47:16;;;;;;;;;5.00;4.75;;;;;13.16;65.24;99484.69;5072002;28;46507;-79
2023/04/11 03:49:42;;;;;;;;;10.25;8.00;;;;;13.08;65.23;99489.41;5065697;28;45339;-79
2023/04/11 03:52:08;;;;;;;;;10.50;8.00;;;;;12.99;64.43;99485.41;5067106;28;45819;-79
2023/04/11 03:54:34;;;;;;;;;9.00;8.00;;;;;12.92;64.85;99481.28;5060445;28;45471;-79
2023/04/11 03:56:59;;;;;;;;;7.00;7.00;;;;;12.87;65.97;99481.53;5058240;27;45538;-79
2023/04/11 03:59:25;;;;;;;;;6.50;6.50;;;;;12.85;65.36;99485.16;5060525;28;45421;-79
2023/04/11 04:01:50;;;;;;;;;8.75;7.00;;;;;12.85;66.18;99499.25;5059522;27;45364;-79
2023/04/11 04:04:16;;;;;;;;;7.00;6.75;;;;;12.86;66.50;99502.75;5054282;28;45420;-79
2023/04/11 04:06:41;;;;;;;;;13.00;9.75;;;;;12.88;66.71;99508.84;5051510;28;47293;-79
2023/04/11 04:09:07;;;;;;;;;9.00;7.50;;;;;12.83;68.27;99501.09;5042373;28;45531;-80
2023/04/11 04:11:32;;;;;;;;;10.00;10.00;;;;;12.74;70.72;99498.81;5049344;28;45514;-79
2023/04/11 04:13:58;;;;;;;;;7.50;6.00;;;;;12.63;70.49;99484.34;5053047;28;45392;-80
2023/04/11 04:16:23;;;;;;;;;8.25;8.00;;;;;12.56;69.25;99489.91;5049159;28;46068;-80
2023/04/11 04:18:49;;;;;;;;;8.00;6.75;;;;;12.50;70.97;99492.81;5058023;28;45348;-80
2023/04/11 04:21:14;;;;;;;;;11.25;8.25;;;;;12.46;70.44;99495.63;5049531;28;45389;-79
2023/04/11 04:23:46;;;;;;;;;5.50;5.00;;;;;12.41;70.71;99505.53;5056694;28;45475;-79
2023/04/11 04:26:15;;;;;;;;;10.75;8.00;;;;;12.37;72.16;99506.63;5062143;28;46286;-79
2023/04/11 04:28:44;;;;;;;;;12.25;9.50;;;;;12.33;71.98;99508.50;5062826;28;45661;-79
2023/04/11 04:31:11;;;;;;;;;12.00;10.25;;;;;12.29;75.17;99509.56;5049260;28;45575;-79
2023/04/11 04:33:36;;;;;;;;;5.00;5.00;;;;;12.23;71.28;99520.41;5067236;28;45457;-79
2023/04/11 04:36:03;;;;;;;;;9.50;8.25;;;;;12.20;73.22;99520.50;5052697;28;46820;-79
2023/04/11 04:38:29;;;;;;;;;8.75;8.75;;;;;12.18;73.87;99520.56;5056705;28;45548;-79
2023/04/11 04:40:55;;;;;;;;;15.75;11.25;;;;;12.18;73.56;99525.00;5058086;28;45525;-79
2023/04/11 04:43:22;;;;;;;;;10.75;9.00;;;;;12.13;76.03;99525.19;5058308;28;45427;-79
2023/04/11 04:45:48;;;;;;;;;8.00;8.00;;;;;12.09;75.41;99514.78;5054777;28;46154;-79
2023/04/11 04:48:14;;;;;;;;;7.50;6.50;;;;;12.10;74.87;99509.44;5053272;28;45419;-79
2023/04/11 04:50:39;;;;;;;;;10.25;9.25;;;;;12.12;73.00;99504.09;5047612;28;45483;-79
2023/04/11 04:53:06;;;;;;;;;9.00;9.00;;;;;12.13;74.88;99498.75;5063517;28;45416;-78
2023/04/11 04:55:32;;;;;;;;;10.75;9.50;;;;;12.12;74.34;99501.44;5046889;28;45546;-78
2023/04/11 04:57:57;;;;;;;;;10.25;8.75;;;;;12.12;74.76;99498.81;5046237;28;45471;-79
2023/04/11 05:00:23;;;;;;;;;13.25;10.00;;;;;12.14;76.39;99496.97;5052023;28;45402;-80
2023/04/11 05:02:48;;;;;;;;;11.67;11.67;;;;;12.16;77.48;99508.34;5052445;28;45449;-79
2023/04/11 05:05:14;;;;;;;;;10.00;10.00;;;;;12.13;77.50;99511.09;5053729;28;45455;-79
2023/04/11 05:07:41;;;;;;;;;11.75;10.75;;;;;12.15;75.41;99519.81;5036546;28;45645;-79
2023/04/11 05:10:07;;;;;;;;;12.25;11.75;;;;;12.19;76.14;99516.16;5044830;28;45419;-79
2023/04/11 05:12:32;;;;;;;;;15.75;11.50;;;;;12.20;75.36;99521.38;5052992;28;45692;-79
2023/04/11 05:14:58;;;;;;;;;13.50;11.50;;;;;12.20;75.42;99518.72;5049625;28;45970;-79
2023/04/11 05:17:25;;;;;;;;;13.25;11.00;;;;;12.21;76.38;99499.31;5057464;28;45496;-78
2023/04/11 05:19:50;;;;;;;;;11.50;10.25;;;;;12.23;77.21;99515.13;5057139;28;45597;-78
2023/04/11 05:22:15;;;;;;;;;13.75;12.75;;;;;12.22;76.42;99519.53;5054398;28;45353;-79
2023/04/11 05:24:41;;;;;;;;;16.67;12.67;;;;;12.23;76.27;99510.66;5061917;28;45737;-79
2023/04/11 05:27:06;;;;;;;;;13.75;11.25;;;;;12.25;76.55;99521.16;5043629;28;45399;-79
2023/04/11 05:29:32;;;;;;;;;10.00;9.00;;;;;12.28;76.32;99523.69;5054021;28;45368;-79
2023/04/11 05:31:57;;;;;;;;;12.75;11.50;;;;;12.32;75.77;99522.66;5053174;28;45523;-79
2023/04/11 05:34:22;;;;;;;;;11.00;9.50;;;;;12.38;75.66;99524.19;5040435;28;45438;-79
2023/04/11 05:36:48;;;;;;;;;9.75;9.75;;;;;12.42;75.61;99525.75;5048687;28;45546;-79
2023/04/11 05:39:13;;;;;;;;;12.00;11.00;;;;;12.47;75.69;99524.66;5057477;28;45498;-79
2023/04/11 05:41:39;;;;;;;;;11.00;11.00;;;;;12.56;75.80;99528.72;5047391;28;45508;-79
2023/04/11 05:44:04;;;;;;;;;11.00;11.00;;;;;12.61;75.85;99517.94;5042648;28;46357;-79
2023/04/11 05:46:34;;;;;;;;;11.00;11.00;;;;;12.68;76.12;99517.63;5048184;28;45408;-61
2023/04/11 05:48:59;;;;;;;;;9.50;9.50;;;;;12.80;76.31;99527.69;5048754;28;45465;-59
2023/04/11 05:51:25;;;;;;;;;10.25;10.00;;;;;12.90;76.11;99528.16;5049253;28;45434;-59
2023/04/11 05:53:50;;;;;;;;;9.75;9.75;;;;;13.00;75.73;99528.63;5040428;28;45996;-60
2023/04/11 05:56:16;;;;;;;;;9.50;9.50;;;;;13.09;75.80;99517.59;5046693;28;45471;-59
2023/04/11 05:58:42;;;;;;;;;12.00;10.50;;;;;13.16;75.47;99512.03;5051497;28;45425;-59
2023/04/11 06:01:11;;;;;;;;;13.00;12.00;;;;;13.22;75.25;99505.59;5045168;28;45580;-59
2023/04/11 06:03:36;;;;;;;;;13.50;11.75;;;;;13.27;74.99;99496.50;5051748;28;46252;-60
2023/04/11 06:06:02;;;;;;;;;9.75;9.00;;;;;13.32;75.52;99504.25;5050378;28;45605;-59
2023/04/11 06:08:28;;;;;;;;;11.25;11.00;;;;;13.38;75.12;99511.94;5050511;28;45429;-60
2023/04/11 06:10:54;;;;;;;;;15.00;13.00;;;;;13.42;75.51;99523.22;5046759;28;45614;-60
2023/04/11 06:13:20;;;;;;;;;11.75;11.75;;;;;13.45;75.32;99523.94;5037453;28;47159;-60
2023/04/11 06:15:45;;;;;;;;;12.25;11.25;;;;;13.49;74.75;99529.97;5052352;28;45339;-60
2023/04/11 06:18:11;;;;;;;;;12.50;11.00;;;;;13.50;73.86;99539.66;5050737;28;45436;-60
2023/04/11 06:20:37;;;;;;;;;11.75;10.00;;;;;13.44;74.39;99537.25;5051780;28;45622;-60
2023/04/11 06:23:02;;;;;;;;;14.00;14.00;;;;;13.34;75.39;99543.91;5054688;28;45434;-61
2023/04/11 06:25:28;;;;;;;;;10.25;10.25;;;;;13.23;74.15;99558.50;5050809;28;45547;-60
2023/04/11 06:27:53;;;;;;;;;11.67;9.67;;;;;13.06;77.04;99560.13;5049540;28;45450;-60
2023/04/11 06:30:19;;;;;;;;;11.00;10.00;;;;;12.92;76.84;99573.91;5045278;28;45575;-60
2023/04/11 06:32:44;;;;;;;;;10.00;9.00;;;;;12.80;76.80;99569.16;5047882;28;45655;-60
2023/04/11 06:35:10;;;;;;;;;17.67;15.67;;;;;12.70;78.13;99551.97;5065823;28;45531;-59
2023/04/11 06:37:36;;;;;;;;;11.75;11.25;;;;;12.60;79.03;99556.75;5051429;28;45368;-58
2023/04/11 06:40:01;;;;;;;;;17.67;15.33;;;;;12.51;81.06;99549.22;5054216;28;45633;-60
2023/04/11 06:42:26;;;;;;;;;11.00;10.25;;;;;12.44;81.46;99587.38;5052975;28;45500;-60
2023/04/11 06:44:52;;;;;;;;;11.25;8.00;;;;;12.39;81.63;99573.50;5050234;28;45520;-59
2023/04/11 06:47:17;;;;;;;;;5.50;3.00;;;;;12.34;81.51;99567.53;5051217;28;45475;-60
2023/04/11 06:49:43;;;;;;;;;4.75;4.25;;;;;12.29;82.76;99565.06;5055591;28;45367;-60
2023/04/11 06:52:08;;;;;;;;;10.75;8.50;;;;;12.23;82.79;99547.66;5071406;28;47161;-60
2023/04/11 06:54:34;;;;;;;;;7.50;7.50;;;;;12.19;82.77;99545.22;5055679;28;45448;-60
2023/04/11 06:57:01;;;;;;;;;10.75;9.75;;;;;12.18;81.61;99565.50;5055811;28;45360;-60
2023/04/11 06:59:26;;;;;;;;;10.75;9.25;;;;;12.21;80.76;99567.19;5054741;28;45597;-60
2023/04/11 07:01:51;;;;;;;;;7.50;7.25;;;;;12.26;80.93;99556.41;5053997;28;46932;-60
2023/04/11 07:04:17;;;;;;;;;9.25;7.75;;;;;12.27;80.09;99574.84;5055879;28;45380;-60
2023/04/11 07:06:42;;;;;;;;;10.50;9.00;;;;;12.31;80.51;99575.59;5056044;28;45459;-60
2023/04/11 07:09:14;;;;;;;;;8.00;6.75;;;;;12.34;79.27;99571.03;5073216;27;45639;-60
2023/04/11 07:11:39;;;;;;;;;2.00;2.00;;;;;12.41;79.16;99566.34;5051884;28;46576;-60
2023/04/11 07:14:05;;;;;;;;;12.00;8.25;;;;;12.47;78.83;99566.13;5035507;28;45402;-60
2023/04/11 07:16:31;;;;;;;;;5.25;4.00;;;;;12.51;77.75;99551.84;5035457;28;45397;-60
2023/04/11 07:18:57;;;;;;;;;5.75;5.75;;;;;12.61;77.47;99531.16;5040239;28;45478;-60
2023/04/11 07:21:23;;;;;;;;;9.50;8.25;;;;;12.68;77.47;99557.31;5035344;28;46166;-60
2023/04/11 07:23:48;;;;;;;;;10.25;8.75;;;;;12.73;77.96;99551.84;5061347;28;45470;-60
2023/04/11 07:26:15;;;;;;;;;7.00;7.00;;;;;12.74;76.75;99572.03;5068925;27;45658;-60
2023/04/11 07:28:43;;;;;;;;;4.25;3.25;;;;;12.75;76.80;99602.88;5035790;28;45417;-60
2023/04/11 07:31:12;;;;;;;;;6.25;6.00;;;;;12.71;77.07;99586.28;5035445;28;46561;-60
2023/04/11 07:33:38;;;;;;;;;9.50;9.50;;;;;12.74;77.47;99583.50;5042388;28;45546;-60
2023/04/11 07:36:05;;;;;;;;;8.50;7.75;;;;;12.67;77.07;99589.09;5054043;28;45519;-60
2023/04/11 07:38:32;;;;;;;;;7.75;7.00;;;;;12.64;77.71;99610.41;5055122;28;45419;-60
2023/04/11 07:41:00;;;;;;;;;4.25;4.25;;;;;12.57;77.49;99660.03;5069300;28;47265;-60
2023/04/11 07:43:26;;;;;;;;;4.75;4.50;;;;;12.52;77.77;99628.50;5054834;28;45404;-60
2023/04/11 07:45:53;;;;;;;;;9.00;9.00;;;;;12.49;79.07;99617.16;5054610;28;45414;-60
2023/04/11 07:48:23;;;;;;;;;7.00;6.00;;;;;12.41;80.67;99588.38;5073969;27;45575;-60
2023/04/11 07:50:49;;;;;;;;;8.75;8.75;;;;;12.32;80.26;99631.06;5051519;28;46221;-59
2023/04/11 07:53:15;;;;;;;;;9.25;9.00;;;;;12.24;82.55;99620.75;5032567;28;45399;-60
2023/04/11 07:55:40;;;;;;;;;8.25;8.00;;;;;12.10;84.38;99619.56;5034532;28;45421;-60
2023/04/11 07:58:06;;;;;;;;;8.00;6.50;;;;;11.96;85.84;99656.22;5034980;28;45492;-60
2023/04/11 08:00:32;;;;;;;;;6.25;6.00;;;;;11.81;87.29;99637.41;5035416;28;45467;-59
2023/04/11 08:03:05;;;;;;;;;7.25;5.25;;;;;11.66;88.49;99626.50;5054639;28;45474;-59
2023/04/11 08:05:32;;;;;;;;;3.00;3.00;;;;;11.52;88.95;99648.13;5054579;28;45453;-59
2023/04/11 08:07:58;;;;;;;;;1.75;1.75;;;;;11.44;88.51;99689.75;5053962;28;45399;-59
2023/04/11 08:10:24;;;;;;;;;4.25;3.00;;;;;11.44;86.99;99647.50;5054468;28;46150;-59
2023/04/11 08:12:50;;;;;;;;;1.75;1.75;;;;;11.39;85.99;99641.56;5054796;28;45391;-59
2023/04/11 08:15:16;;;;;;;;;0.75;0.75;;;;;11.30;85.49;99731.59;5054206;28;45465;-59
2023/04/11 08:17:43;;;;;;;;;1.00;1.00;;;;;11.31;84.12;99655.00;5054985;28;45487;-59
2023/04/11 08:20:11;;;;;;;;;0.00;0.00;;;;;11.33;84.25;99649.69;5054353;28;45409;-59
2023/04/11 08:22:38;;;;;;;;;0.00;0.00;;;;;11.34;84.57;99657.53;5060914;28;45711;-59
2023/04/11 08:25:04;;;;;;;;;1.00;1.00;;;;;11.30;84.42;99645.38;5057043;27;45428;-59
2023/04/11 08:27:30;;;;;;;;;1.50;0.00;;;;;11.32;83.01;99654.09;5054090;28;45393;-59
2023/04/11 08:29:57;;;;;;;;;1.00;1.00;;;;;11.39;81.57;99652.13;5053404;28;46380;-59
2023/04/11 08:32:22;;;;;;;;;0.50;0.50;;;;;11.38;81.20;99643.34;5054093;28;45322;-59
2023/04/11 08:34:48;;;;;;;;;0.00;0.00;;;;;11.42;80.65;99642.28;5054618;28;45426;-58
2023/04/11 08:37:13;;;;;;;;;1.00;1.00;;;;;11.44;80.62;99651.03;5042372;28;45443;-58
2023/04/11 08:39:38;;;;;;;;;0.50;0.50;;;;;11.49;79.76;99675.50;5032113;28;46907;-58
2023/04/11 08:42:04;;;;;;;;;1.50;0.00;;;;;11.50;79.15;99682.50;5034245;28;45397;-59
2023/04/11 08:44:29;;;;;;;;;1.00;1.00;;;;;11.61;78.70;99652.19;5033510;28;45356;-59
2023/04/11 08:46:54;;;;;;;;;2.00;1.00;;;;;11.69;78.48;99642.22;5033984;28;45256;-59
2023/04/11 08:49:20;;;;;;;;;2.00;0.25;;;;;11.80;78.23;99654.16;5033606;28;45411;-59
2023/04/11 08:51:46;;;;;;;;;0.25;0.00;;;;;11.90;77.26;99649.38;5033880;28;45377;-60
2023/04/11 08:54:14;;;;;;;;;0.00;0.00;;;;;12.02;76.50;99622.53;5033673;28;45434;-59
2023/04/11 08:56:41;;;;;;;;;0.50;0.00;;;;;12.17;75.58;99635.16;5033571;28;45356;-59
2023/04/11 08:59:07;;;;;;;;;0.00;0.00;;;;;12.23;75.25;99642.00;5048216;28;48525;-59
2023/04/11 09:01:35;;;;;;;;;0.50;0.00;;;;;12.26;74.11;99638.34;5042876;28;45825;-59
2023/04/11 09:04:04;;;;;;;;;0.00;0.00;;;;;12.29;74.27;99649.66;5053379;28;45436;-59
2023/04/11 09:06:31;;;;;;;;;0.00;0.00;;;;;12.32;73.92;99632.84;5068471;28;45405;-59
2023/04/11 09:09:03;;;;;;;;;2.50;0.00;;;;;12.37;72.39;99634.38;5053009;28;46828;-59
2023/04/11 09:11:29;;;;;;;;;0.25;0.25;;;;;12.45;72.87;99634.94;5053138;28;45427;-59
2023/04/11 09:14:10;;;;;;;;;2.00;1.00;;;;;12.55;72.58;99649.53;5053426;28;45358;-59
2023/04/11 09:16:36;;;;;;;;;0.00;0.00;;;;;12.64;71.34;99634.19;5053572;28;45453;-59
2023/04/11 09:19:02;;;;;;;;;1.25;0.00;;;;;12.76;70.61;99647.78;5053429;28;46514;-59
2023/04/11 09:21:28;;;;;;;;;1.00;0.00;;;;;12.87;70.70;99634.13;5054038;28;45439;-59
2023/04/11 09:24:12;;;;;;;;;0.00;0.00;;;;;12.96;68.93;99636.38;5063171;28;45616;-59
2023/04/11 09:26:37;;;;;;;;;0.50;0.00;;;;;13.00;67.86;99627.41;5052110;28;45415;-59
2023/04/11 09:29:02;;;;;;;;;0.00;0.00;;;;;13.12;69.50;99620.72;5068924;28;47285;-59
2023/04/11 09:31:44;;;;;;;;;2.00;0.00;;;;;13.23;68.72;99606.16;5053329;28;45432;-59
2023/04/11 09:34:11;;;;;;;;;1.25;0.75;;;;;13.38;68.09;99617.88;5053527;28;45340;-59
2023/04/11 09:36:37;;;;;;;;;0.00;0.00;;;;;13.47;67.42;99608.66;5053401;28;45440;-59
2023/04/11 09:39:18;;;;;;;;;0.50;0.00;;;;;13.49;64.66;99606.78;5052624;28;45640;-61
2023/04/11 09:41:44;;;;;;;;;2.60;0.00;;;;;13.53;65.63;99617.19;5053088;28;45359;-60
2023/04/11 09:44:10;;;;;;;;;0.00;0.00;;;;;13.58;64.51;99622.25;5051835;28;45429;-60
2023/04/11 09:46:36;;;;;;;;;0.25;0.00;;;;;13.64;63.19;99616.69;5052655;28;45476;-59
2023/04/11 09:49:02;;;;;;;;;0.00;0.00;;;;;13.74;62.76;99615.34;5050676;28;46011;-59
2023/04/11 09:51:28;;;;;;;;;0.80;0.00;;;;;13.85;61.29;99612.22;5045404;28;45421;-60
2023/04/11 09:53:54;;;;;;;;;2.00;0.00;;;;;13.93;61.16;99600.34;5050889;28;45557;-60
2023/04/11 09:56:20;;;;;;;;;0.75;0.75;;;;;14.04;61.46;99601.66;5053507;28;45512;-59
2023/04/11 09:58:47;;;;;;;;;0.00;0.00;;;;;14.15;61.07;99591.38;5051962;28;46519;-60
2023/04/11 10:01:13;;;;;;;;;5.75;4.00;;;;;14.26;63.63;99584.63;5055167;28;45467;-57
2023/04/11 10:03:39;;;;;;;;;9.00;9.00;;;;;14.43;65.14;99583.00;5052655;28;45512;-58
2023/04/11 10:06:08;;;;;;;;;12.75;12.75;;;;;14.60;66.92;99593.66;5044382;28;45487;-59
2023/04/11 10:08:36;;;;;;;;;3.25;2.50;;;;;14.78;64.83;99610.47;5037280;28;46043;-59
2023/04/11 10:11:08;;;;;;;;;1.00;1.00;;;;;14.78;59.64;99621.09;5032722;28;45467;-59
2023/04/11 10:13:46;;;;;;;;;2.75;1.50;;;;;14.71;61.20;99609.06;5032681;28;45464;-58
2023/04/11 10:16:17;;;;;;;;;10.50;10.00;;;;;14.64;64.10;99611.16;5032806;28;45397;-58
2023/04/11 10:18:51;;;;;;;;;12.00;10.75;;;;;14.70;65.56;99599.38;5032272;28;46294;-59
2023/04/11 10:21:32;;;;;;;;;13.75;13.75;;;;;14.84;67.44;99592.44;5032603;28;45306;-58
2023/04/11 10:24:13;;;;;;;;;13.00;12.00;;;;;15.07;67.65;99593.09;5060727;28;45458;-58
2023/04/11 10:27:05;;;;;;;;;18.50;15.50;;;;;15.24;67.74;99593.09;5052976;28;45385;-58
2023/04/11 10:29:33;;;;;;;;;16.50;15.00;;;;;15.34;67.39;99591.66;5049763;28;45405;-59
2023/04/11 10:32:18;;;;;;;;;11.75;11.75;;;;;15.46;67.82;99583.06;5050974;28;45401;-58
2023/04/11 10:34:49;;;;;;;;;13.50;13.00;;;;;15.61;67.65;99584.94;5050387;28;45550;-58
2023/04/11 10:37:18;;;;;;;;;11.50;11.50;;;;;15.77;67.18;99584.97;5041972;28;45669;-59
2023/04/11 10:39:52;;;;;;;;;11.00;11.00;;;;;15.88;66.96;99571.97;5041343;28;46566;-59
2023/04/11 10:42:27;;;;;;;;;10.50;10.50;;;;;15.95;66.36;99583.97;5032779;28;45357;-59
2023/04/11 10:45:23;;;;;;;;;9.75;9.25;;;;;16.02;65.98;99593.34;5031897;28;45327;-59
2023/04/11 10:47:57;;;;;;;;;8.25;7.25;;;;;16.09;65.81;99580.53;5032536;28;45496;-59
2023/04/11 10:50:25;;;;;;;;;8.75;8.75;;;;;16.19;65.62;99555.16;5032321;28;45368;-58
2023/04/11 10:52:59;;;;;;;;;7.60;5.80;;;;;16.33;65.15;99562.38;5031474;28;45381;-58
2023/04/11 10:55:26;;;;;;;;;8.25;6.50;;;;;16.52;64.65;99576.34;5032251;28;45393;-58
2023/04/11 10:58:05;;;;;;;;;5.75;5.75;;;;;16.73;64.38;99558.31;5031698;28;45413;-58
2023/04/11 11:00:49;;;;;;;;;5.75;4.50;;;;;16.90;63.46;99541.34;5033915;28;46289;-58
2023/04/11 11:03:29;;;;;;;;;6.60;6.60;;;;;17.05;63.60;99538.63;5052214;28;45374;-58
2023/04/11 11:06:00;;;;;;;;;5.00;4.00;;;;;17.17;62.96;99529.03;5067061;28;45467;-58
2023/04/11 11:08:41;;;;;;;;;6.00;6.00;;;;;17.37;62.35;99536.69;5051624;28;45376;-58
2023/04/11 11:11:09;;;;;;;;;8.00;6.50;;;;;17.48;62.09;99538.69;5051612;28;45400;-58
2023/04/11 11:13:37;;;;;;;;;8.60;6.40;;;;;17.60;61.89;99548.56;5051196;28;45496;-59
2023/04/11 11:16:03;;;;;;;;;6.75;6.50;;;;;17.64;61.75;99549.28;5052276;28;45584;-58
2023/04/11 11:18:29;;;;;;;;;7.25;6.00;;;;;17.64;61.76;99547.47;5054899;28;45512;-59
2023/04/11 11:20:55;;;;;;;;;8.00;8.00;;;;;17.71;60.97;99539.97;5070626;28;45566;-58
2023/04/11 11:23:20;;;;;;;;;9.50;9.50;;;;;17.79;60.82;99537.66;5065274;28;45384;-59
2023/04/11 11:25:53;;;;;;;;;8.00;6.00;;;;;17.87;60.81;99538.03;5054653;28;45413;-58
2023/04/11 11:28:19;;;;;;;;;9.50;9.25;;;;;17.95;60.57;99538.41;5055273;28;45461;-58